Time;durP1;ratioP1;P1;durP2;ratioP2;P2;SDS_P1;SDS_P2;PMS_P1;PMS_P2;Temp;Humidity;BMP_temperature;BMP_pressure;BME280_temperature;BME280_humidity;BME280_pressure;Samples;Min_cycle;Max_cycle;Signal;HPM_P1;HPM_P2
2024/01/30 00:01:47;;;;;;;21.13;13.30;;;;;;;4.86;100.00;102472.31;5069006;28;20072;-55
2024/01/30 00:04:16;;;;;;;18.60;12.73;;;;;;;4.84;100.00;102471.47;5070555;28;20052;-54
2024/01/30 00:06:45;;;;;;;17.33;12.18;;;;;;;4.90;100.00;102471.38;5072265;28;20044;-47
2024/01/30 00:09:13;;;;;;;19.58;13.23;;;;;;;4.96;100.00;102472.16;5067884;28;20059;-50
2024/01/30 00:11:41;;;;;;;22.77;14.60;;;;;;;5.00;100.00;102468.63;5069427;28;20098;-47
2024/01/30 00:14:11;;;;;;;22.35;13.77;;;;;;;5.04;100.00;102465.09;5069885;28;20762;-46
2024/01/30 00:16:39;;;;;;;22.40;14.68;;;;;;;5.13;100.00;102477.13;5067006;28;20060;-49
2024/01/30 00:19:08;;;;;;;22.23;14.05;;;;;;;5.19;100.00;102471.81;5070809;28;20044;-47
2024/01/30 00:21:36;;;;;;;23.45;14.18;;;;;;;5.30;100.00;102474.22;5071971;28;20499;-47
2024/01/30 00:24:05;;;;;;;21.23;14.02;;;;;;;5.45;100.00;102475.72;5072196;28;20080;-46
2024/01/30 00:26:33;;;;;;;20.73;13.35;;;;;;;5.44;100.00;102474.88;5072277;28;20055;-48
2024/01/30 00:29:01;;;;;;;18.65;12.90;;;;;;;5.46;100.00;102469.63;5069819;28;20045;-47
2024/01/30 00:31:31;;;;;;;20.85;13.88;;;;;;;5.53;100.00;102472.06;5068325;28;20140;-47
2024/01/30 00:33:59;;;;;;;19.83;13.18;;;;;;;5.56;100.00;102473.78;5071393;28;20055;-46
2024/01/30 00:36:29;;;;;;;21.75;13.38;;;;;;;5.54;100.00;102465.97;5072703;28;20553;-47
2024/01/30 00:38:57;;;;;;;23.45;13.40;;;;;;;5.56;100.00;102455.50;5076028;28;20540;-46
2024/01/30 00:41:26;;;;;;;20.10;12.88;;;;;;;5.51;100.00;102463.41;5075963;28;20051;-46
2024/01/30 00:43:54;;;;;;;20.17;12.90;;;;;;;5.51;100.00;102459.97;5075795;28;20044;-47
2024/01/30 00:46:23;;;;;;;18.63;12.30;;;;;;;5.48;100.00;102463.50;5075987;28;20094;-45
2024/01/30 00:48:52;;;;;;;18.63;11.63;;;;;;;5.46;100.00;102459.19;5074332;28;20117;-45
2024/01/30 00:51:20;;;;;;;19.45;12.05;;;;;;;5.43;100.00;102460.09;5074462;28;20056;-45
2024/01/30 00:53:48;;;;;;;15.88;11.43;;;;;;;5.37;100.00;102460.19;5075501;28;20044;-47
2024/01/30 00:56:18;;;;;;;17.75;11.63;;;;;;;5.31;100.00;102458.56;5076092;28;20372;-48
2024/01/30 00:58:46;;;;;;;16.65;12.10;;;;;;;5.26;100.00;102462.97;5075545;28;20127;-45
2024/01/30 01:01:15;;;;;;;17.23;11.57;;;;;;;5.22;100.00;102461.31;5071675;28;20390;-45
2024/01/30 01:03:44;;;;;;;19.85;11.80;;;;;;;5.17;100.00;102452.72;5073458;28;20051;-45
2024/01/30 01:06:14;;;;;;;18.15;11.60;;;;;;;5.15;100.00;102459.69;5075647;28;20045;-46
2024/01/30 01:08:42;;;;;;;17.98;11.93;;;;;;;5.15;100.00;102455.31;5073953;28;20539;-45
2024/01/30 01:11:10;;;;;;;19.20;11.95;;;;;;;5.16;100.00;102466.66;5072300;28;20151;-46
2024/01/30 01:13:38;;;;;;;17.63;11.88;;;;;;;5.20;100.00;102460.50;5074907;28;20036;-46
2024/01/30 01:16:07;;;;;;;17.50;11.75;;;;;;;5.17;100.00;102461.41;5075421;28;20048;-46
2024/01/30 01:18:35;;;;;;;19.67;11.98;;;;;;;5.15;100.00;102454.47;5075248;28;20052;-45
2024/01/30 01:21:04;;;;;;;15.93;11.27;;;;;;;5.20;100.00;102456.13;5074648;28;20040;-45
2024/01/30 01:23:34;;;;;;;19.38;12.88;;;;;;;5.27;100.00;102451.66;5074713;28;20131;-54
2024/01/30 01:26:02;;;;;;;20.48;13.52;;;;;;;5.27;100.00;102453.41;5071366;28;20056;-46
2024/01/30 01:28:30;;;;;;;18.45;11.95;;;;;;;5.18;100.00;102455.31;5071944;28;20048;-45
2024/01/30 01:31:04;;;;;;;18.92;12.95;;;;;;;5.17;100.00;102447.50;5074557;28;20040;-54
2024/01/30 01:33:33;;;;;;;19.55;12.18;;;;;;;5.16;100.00;102451.00;5072707;28;20499;-54
2024/01/30 01:36:02;;;;;;;19.35;12.93;;;;;;;5.16;100.00;102451.00;5071491;28;20458;-49
2024/01/30 01:38:30;;;;;;;19.33;12.25;;;;;;;5.16;100.00;102451.84;5071705;28;20527;-49
2024/01/30 01:41:00;;;;;;;20.15;13.85;;;;;;;5.20;100.00;102452.66;5074087;28;20428;-47
2024/01/30 01:43:28;;;;;;;20.13;13.23;;;;;;;5.20;100.00;102453.50;5074105;28;20565;-45
2024/01/30 01:45:56;;;;;;;20.58;13.32;;;;;;;5.27;100.00;102449.06;5074413;28;20507;-45
2024/01/30 01:48:25;;;;;;;22.42;13.30;;;;;;;5.30;100.00;102441.16;5073830;28;20067;-46
2024/01/30 01:50:53;;;;;;;20.60;14.23;;;;;;;5.27;100.00;102440.38;5074762;28;20418;-45
2024/01/30 01:53:22;;;;;;;22.88;12.65;;;;;;;5.31;100.00;102442.91;5074706;28;20051;-45
2024/01/30 01:55:52;;;;;;;19.05;12.48;;;;;;;5.35;100.00;102441.94;5074580;28;20415;-45
2024/01/30 01:58:23;;;;;;;19.35;12.82;;;;;;;5.39;100.00;102438.41;5074780;28;20072;-45
2024/01/30 02:00:52;;;;;;;20.02;13.98;;;;;;;5.44;100.00;102440.94;5074439;28;20135;-45
2024/01/30 02:03:21;;;;;;;19.08;12.93;;;;;;;5.46;100.00;102444.38;5074139;28;20049;-46
2024/01/30 02:05:51;;;;;;;18.83;13.32;;;;;;;5.45;100.00;102432.19;5074392;28;20434;-45
2024/01/30 02:08:19;;;;;;;17.27;12.20;;;;;;;5.47;100.00;102427.84;5074440;28;20575;-53
2024/01/30 02:10:47;;;;;;;21.88;12.88;;;;;;;5.55;100.00;102420.72;5072830;28;20040;-53
2024/01/30 02:13:16;;;;;;;18.27;11.82;;;;;;;5.59;100.00;102429.38;5071700;28;20139;-53
2024/01/30 02:15:51;;;;;;;18.08;12.43;;;;;;;5.58;100.00;102422.41;5069757;28;20053;-53
2024/01/30 02:18:21;;;;;;;18.50;12.25;;;;;;;5.67;100.00;102424.84;5071202;28;20041;-54
2024/01/30 02:20:50;;;;;;;17.42;11.20;;;;;;;5.66;100.00;102424.84;5071703;28;20040;-53
2024/01/30 02:23:20;;;;;;;17.60;11.50;;;;;;;5.73;100.00;102429.09;5072859;28;20496;-54
2024/01/30 02:25:49;;;;;;;17.58;10.63;;;;;;;5.72;100.00;102433.44;5070568;28;20054;-51
2024/01/30 02:28:17;;;;;;;17.40;11.50;;;;;;;5.75;100.00;102429.91;5070832;28;20045;-54
2024/01/30 02:30:45;;;;;;;22.00;12.18;;;;;;;5.78;100.00;102427.25;5073076;28;20534;-52
2024/01/30 02:33:14;;;;;;;17.23;11.52;;;;;;;5.79;100.00;102425.50;5072849;28;20049;-54
2024/01/30 02:35:42;;;;;;;17.15;11.27;;;;;;;5.79;100.00;102420.28;5070821;28;20037;-54
2024/01/30 02:38:11;;;;;;;17.10;11.57;;;;;;;5.78;100.00;102419.44;5071589;28;20088;-51
2024/01/30 02:40:40;;;;;;;16.38;10.93;;;;;;;5.75;100.00;102414.25;5073358;28;20554;-53
2024/01/30 02:43:08;;;;;;;15.45;9.75;;;;;;;5.73;100.00;102418.66;5073116;28;20041;-52
2024/01/30 02:45:36;;;;;;;17.70;10.45;;;;;;;5.69;100.00;102414.38;5073627;28;20057;-53
2024/01/30 02:48:05;;;;;;;16.13;10.25;;;;;;;5.66;100.00;102404.84;5073720;28;20520;-54
2024/01/30 02:50:33;;;;;;;17.73;10.25;;;;;;;5.68;100.00;102402.22;5073341;28;20091;-53
2024/01/30 02:53:01;;;;;;;15.88;10.55;;;;;;;5.68;100.00;102397.84;5073379;28;20057;-54
2024/01/30 02:55:30;;;;;;;16.17;10.50;;;;;;;5.65;100.00;102407.50;5073456;28;20048;-53
2024/01/30 02:57:59;;;;;;;16.80;10.57;;;;;;;5.59;100.00;102398.03;5072643;28;20052;-53
2024/01/30 03:00:27;;;;;;;13.85;9.95;;;;;;;5.58;100.00;102402.38;5067838;28;20043;-54
2024/01/30 03:02:56;;;;;;;18.38;10.02;;;;;;;5.54;100.00;102397.25;5070240;28;20387;-54
2024/01/30 03:05:24;;;;;;;16.38;9.68;;;;;;;5.61;100.00;102396.25;5070015;28;20419;-54
2024/01/30 03:07:52;;;;;;;17.77;9.77;;;;;;;5.54;100.00;102392.91;5069764;28;20052;-54
2024/01/30 03:10:20;;;;;;;16.75;9.73;;;;;;;5.52;100.00;102399.03;5069624;28;20135;-53
2024/01/30 03:12:49;;;;;;;16.02;10.18;;;;;;;5.61;100.00;102400.63;5070516;28;20897;-53
2024/01/30 03:15:18;;;;;;;15.65;9.88;;;;;;;5.58;100.00;102401.53;5068499;28;20499;-53
2024/01/30 03:17:46;;;;;;;15.20;10.52;;;;;;;5.54;100.00;102394.66;5070173;28;20529;-49
2024/01/30 03:20:15;;;;;;;14.30;9.45;;;;;;;5.49;100.00;102392.09;5071345;28;20476;-49
2024/01/30 03:22:43;;;;;;;17.40;10.38;;;;;;;5.55;100.00;102389.41;5072442;28;20044;-50
2024/01/30 03:25:11;;;;;;;15.38;10.02;;;;;;;5.51;100.00;102385.13;5072511;28;20447;-45
2024/01/30 03:27:39;;;;;;;15.85;10.23;;;;;;;5.50;100.00;102390.38;5072867;28;20407;-44
2024/01/30 03:30:10;;;;;;;14.65;9.85;;;;;;;5.49;100.00;102386.03;5072477;28;20387;-45
2024/01/30 03:32:40;;;;;;;19.65;10.73;;;;;;;5.49;100.00;102383.44;5071087;28;20118;-44
2024/01/30 03:35:09;;;;;;;14.52;10.05;;;;;;;5.49;100.00;102376.44;5069354;28;20051;-45
2024/01/30 03:37:37;;;;;;;15.90;9.98;;;;;;;5.48;100.00;102374.75;5069242;28;20133;-45
2024/01/30 03:40:06;;;;;;;16.77;10.55;;;;;;;5.47;100.00;102367.81;5068909;28;20507;-46
2024/01/30 03:42:34;;;;;;;14.70;10.10;;;;;;;5.51;100.00;102366.88;5069488;28;20052;-46
2024/01/30 03:45:02;;;;;;;15.52;10.05;;;;;;;5.49;100.00;102368.63;5070767;28;20080;-47
2024/01/30 03:47:31;;;;;;;18.50;10.15;;;;;;;5.50;100.00;102367.75;5072366;28;20400;-45
2024/01/30 03:50:00;;;;;;;16.13;11.00;;;;;;;5.49;100.00;102368.63;5072406;28;20101;-46
2024/01/30 03:52:28;;;;;;;14.88;9.70;;;;;;;5.49;100.00;102359.94;5072176;28;20162;-47
2024/01/30 03:54:57;;;;;;;13.85;9.50;;;;;;;5.51;100.00;102359.03;5072581;28;20418;-45
2024/01/30 03:57:25;;;;;;;16.98;10.00;;;;;;;5.58;100.00;102349.34;5072509;28;20381;-44
2024/01/30 03:59:53;;;;;;;15.02;9.90;;;;;;;5.57;100.00;102356.28;5072331;28;20056;-45
2024/01/30 04:02:21;;;;;;;17.08;9.65;;;;;;;5.58;100.00;102354.56;5072209;28;20502;-45
2024/01/30 04:04:50;;;;;;;15.15;10.52;;;;;;;5.68;100.00;102350.84;5072285;28;20131;-46
2024/01/30 04:07:19;;;;;;;15.23;10.05;;;;;;;5.69;100.00;102356.94;5072335;28;20049;-45
2024/01/30 04:09:51;;;;;;;16.15;10.52;;;;;;;5.62;100.00;102352.72;5072381;28;20090;-45
2024/01/30 04:12:19;;;;;;;18.42;11.07;;;;;;;5.63;100.00;102359.66;5074334;28;20395;-45
2024/01/30 04:14:48;;;;;;;16.30;10.27;;;;;;;5.57;100.00;102361.50;5076592;28;20036;-45
2024/01/30 04:17:16;;;;;;;15.05;10.05;;;;;;;5.56;100.00;102358.94;5076554;28;20448;-44
2024/01/30 04:19:44;;;;;;;14.10;9.52;;;;;;;5.56;100.00;102364.16;5076623;28;20067;-46
2024/01/30 04:22:12;;;;;;;15.93;10.50;;;;;;;5.57;100.00;102363.25;5075861;28;20044;-45
2024/01/30 04:24:42;;;;;;;18.25;10.02;;;;;;;5.62;100.00;102360.56;5076211;28;20045;-45
2024/01/30 04:27:10;;;;;;;16.67;9.52;;;;;;;5.73;100.00;102363.81;5076203;28;20102;-46
2024/01/30 04:29:38;;;;;;;18.70;10.05;;;;;;;5.69;100.00;102356.94;5076017;28;20044;-45
2024/01/30 04:32:07;;;;;;;15.15;9.20;;;;;;;5.72;100.00;102356.88;5075965;28;20037;-44
2024/01/30 04:34:35;;;;;;;14.13;9.45;;;;;;;5.69;100.00;102357.78;5076299;28;20052;-45
2024/01/30 04:37:03;;;;;;;18.02;9.70;;;;;;;5.69;100.00;102352.56;5074739;28;20515;-46
2024/01/30 04:39:34;;;;;;;16.02;8.88;;;;;;;5.72;100.00;102359.50;5074701;28;20044;-45
2024/01/30 04:42:04;;;;;;;19.25;9.88;;;;;;;5.69;100.00;102364.78;5076030;28;20098;-45
2024/01/30 04:44:36;;;;;;;15.40;10.23;;;;;;;5.64;100.00;102358.78;5075465;28;20069;-48
2024/01/30 04:47:05;;;;;;;16.55;9.55;;;;;;;5.61;100.00;102351.88;5075553;28;20106;-45
2024/01/30 04:49:34;;;;;;;14.05;9.27;;;;;;;5.62;100.00;102352.72;5075236;28;20063;-51
2024/01/30 04:52:02;;;;;;;14.90;9.48;;;;;;;5.62;100.00;102344.88;5074709;28;20400;-49
2024/01/30 04:54:30;;;;;;;15.80;9.55;;;;;;;5.61;100.00;102341.44;5074751;28;20048;-46
2024/01/30 04:56:58;;;;;;;14.98;10.70;;;;;;;5.62;100.00;102340.53;5074494;28;20048;-45
2024/01/30 04:59:28;;;;;;;15.52;9.20;;;;;;;5.59;100.00;102338.84;5071636;28;20080;-46
2024/01/30 05:01:56;;;;;;;16.33;9.68;;;;;;;5.57;100.00;102345.00;5071492;28;20056;-53
2024/01/30 05:04:24;;;;;;;16.58;10.20;;;;;;;5.55;100.00;102342.41;5075544;28;20072;-53
2024/01/30 05:06:53;;;;;;;17.38;10.00;;;;;;;5.54;100.00;102334.63;5075727;28;20044;-52
2024/01/30 05:09:22;;;;;;;19.15;10.63;;;;;;;5.54;100.00;102338.09;5072040;28;20381;-54
2024/01/30 05:11:50;;;;;;;20.30;10.88;;;;;;;5.59;100.00;102335.41;5072720;28;20041;-50
2024/01/30 05:14:18;;;;;;;16.98;10.50;;;;;;;5.65;100.00;102330.03;5072066;28;20511;-52
2024/01/30 05:16:48;;;;;;;15.98;10.52;;;;;;;5.69;100.00;102330.84;5073770;28;20150;-53
2024/01/30 05:19:17;;;;;;;18.20;10.40;;;;;;;5.69;100.00;102328.22;5075412;28;20056;-53
2024/01/30 05:21:45;;;;;;;17.85;10.35;;;;;;;5.70;100.00;102324.69;5075088;28;20045;-53
2024/01/30 05:24:13;;;;;;;18.48;10.52;;;;;;;5.75;100.00;102328.09;5073134;28;20044;-54
2024/01/30 05:26:42;;;;;;;17.40;10.63;;;;;;;5.72;100.00;102325.53;5072377;28;20051;-53
2024/01/30 05:29:10;;;;;;;17.73;9.90;;;;;;;5.70;100.00;102322.97;5069850;28;20056;-54
2024/01/30 05:31:38;;;;;;;17.30;10.23;;;;;;;5.71;100.00;102329.03;5073714;28;20041;-53
2024/01/30 05:34:08;;;;;;;15.10;9.75;;;;;;;5.71;100.00;102327.31;5074788;28;20055;-54
2024/01/30 05:36:37;;;;;;;15.27;9.85;;;;;;;5.70;100.00;102333.41;5074938;28;20400;-53
2024/01/30 05:39:05;;;;;;;13.77;9.43;;;;;;;5.69;100.00;102331.69;5075150;28;20376;-52
2024/01/30 05:41:36;;;;;;;16.08;10.45;;;;;;;5.67;100.00;102332.59;5074814;28;20044;-54
2024/01/30 05:44:07;;;;;;;14.52;9.25;;;;;;;5.66;100.00;102338.72;5074813;28;20045;-53
2024/01/30 05:46:36;;;;;;;15.88;9.45;;;;;;;5.66;100.00;102341.31;5074485;28;20049;-51
2024/01/30 05:49:05;;;;;;;15.13;9.75;;;;;;;5.65;100.00;102339.63;5073536;28;20500;-53
2024/01/30 05:51:35;;;;;;;14.07;8.68;;;;;;;5.66;100.00;102341.31;5074640;28;20041;-53
2024/01/30 05:54:04;;;;;;;15.18;9.65;;;;;;;5.69;100.00;102334.31;5074650;28;20379;-53
2024/01/30 05:56:32;;;;;;;16.30;9.70;;;;;;;5.71;100.00;102331.66;5072028;28;20496;-54
2024/01/30 05:59:00;;;;;;;13.57;9.05;;;;;;;5.73;100.00;102322.91;5070259;28;20396;-54
2024/01/30 06:01:29;;;;;;;15.13;9.52;;;;;;;5.73;100.00;102324.66;5073947;28;20064;-53
2024/01/30 06:03:57;;;;;;;15.45;9.55;;;;;;;5.84;100.00;102322.66;5074038;28;20055;-54
2024/01/30 06:06:25;;;;;;;15.38;9.45;;;;;;;5.85;100.00;102326.13;5074277;28;20044;-54
2024/01/30 06:08:57;;;;;;;14.38;9.40;;;;;;;5.86;100.00;102326.13;5072416;28;20047;-54
2024/01/30 06:11:26;;;;;;;15.45;9.32;;;;;;;5.88;100.00;102326.94;5070908;28;20037;-52
2024/01/30 06:13:54;;;;;;;15.40;9.32;;;;;;;5.84;100.00;102333.13;5071081;28;20097;-54
2024/01/30 06:16:22;;;;;;;14.60;9.00;;;;;;;5.81;100.00;102335.81;5070547;28;20484;-54
2024/01/30 06:18:50;;;;;;;17.25;10.00;;;;;;;5.78;100.00;102338.50;5070671;28;20083;-54
2024/01/30 06:21:19;;;;;;;14.55;9.35;;;;;;;5.75;100.00;102341.13;5070713;28;20555;-54
2024/01/30 06:23:48;;;;;;;13.88;8.88;;;;;;;5.72;100.00;102341.22;5072955;28;20074;-45
2024/01/30 06:26:17;;;;;;;13.77;8.68;;;;;;;5.68;100.00;102335.19;5073958;28;20044;-49
2024/01/30 06:28:45;;;;;;;16.83;10.05;;;;;;;5.67;100.00;102332.59;5074077;28;20051;-54
2024/01/30 06:31:13;;;;;;;16.77;10.32;;;;;;;5.70;100.00;102328.19;5073736;28;20060;-51
2024/01/30 06:33:42;;;;;;;15.25;10.05;;;;;;;5.68;100.00;102336.94;5073762;28;20080;-54
2024/01/30 06:36:11;;;;;;;14.20;9.30;;;;;;;5.65;100.00;102335.25;5071809;28;20059;-54
2024/01/30 06:38:39;;;;;;;14.50;9.60;;;;;;;5.63;100.00;102336.19;5070527;28;20056;-51
2024/01/30 06:41:07;;;;;;;16.55;10.45;;;;;;;5.62;100.00;102332.72;5073769;28;20133;-51
2024/01/30 06:43:37;;;;;;;15.05;9.57;;;;;;;5.65;100.00;102345.69;5072947;28;20086;-54
2024/01/30 06:46:05;;;;;;;14.32;9.68;;;;;;;5.64;100.00;102340.50;5068649;28;20052;-55
2024/01/30 06:48:33;;;;;;;15.63;9.60;;;;;;;5.63;100.00;102342.28;5070539;28;20051;-54
2024/01/30 06:51:01;;;;;;;15.18;9.52;;;;;;;5.60;100.00;102342.31;5072790;28;20472;-54
2024/01/30 06:53:30;;;;;;;14.82;9.25;;;;;;;5.61;100.00;102340.59;5073191;28;20486;-55
2024/01/30 06:55:58;;;;;;;16.25;9.30;;;;;;;5.59;100.00;102346.69;5073714;28;20388;-54
2024/01/30 06:58:26;;;;;;;15.38;9.30;;;;;;;5.56;100.00;102341.53;5072205;28;20047;-55
2024/01/30 07:00:56;;;;;;;14.00;9.13;;;;;;;5.57;100.00;102340.63;5068832;28;20071;-46
2024/01/30 07:03:24;;;;;;;14.82;9.43;;;;;;;5.56;100.00;102330.22;5070098;28;20044;-46
2024/01/30 07:05:52;;;;;;;13.77;8.95;;;;;;;5.52;100.00;102339.88;5068590;28;20051;-46
2024/01/30 07:08:20;;;;;;;16.90;8.95;;;;;;;5.52;100.00;102336.38;5072378;28;20056;-46
2024/01/30 07:10:48;;;;;;;14.18;9.13;;;;;;;5.50;100.00;102338.19;5072514;28;20399;-46
2024/01/30 07:13:17;;;;;;;15.98;9.75;;;;;;;5.48;100.00;102342.56;5072618;28;20044;-47
2024/01/30 07:15:46;;;;;;;13.07;8.68;;;;;;;5.47;100.00;102344.31;5072357;28;20093;-51
2024/01/30 07:18:15;;;;;;;14.50;9.13;;;;;;;5.47;100.00;102351.28;5072526;28;20045;-47
2024/01/30 07:20:46;;;;;;;13.70;8.48;;;;;;;5.47;100.00;102359.97;5072873;28;20063;-45
2024/01/30 07:23:16;;;;;;;14.00;8.43;;;;;;;5.52;100.00;102359.88;5071615;28;20056;-45
2024/01/30 07:25:45;;;;;;;12.68;7.63;;;;;;;5.55;100.00;102355.47;5073148;28;20056;-46
2024/01/30 07:28:16;;;;;;;12.13;8.07;;;;;;;5.59;100.00;102354.50;5072447;28;20424;-46
2024/01/30 07:30:45;;;;;;;14.32;8.07;;;;;;;5.66;100.00;102363.09;5072709;28;20132;-48
2024/01/30 07:33:15;;;;;;;17.02;8.98;;;;;;;5.66;100.00;102357.88;5072270;28;20454;-45
2024/01/30 07:35:43;;;;;;;13.40;8.52;;;;;;;5.69;100.00;102368.25;5072929;28;20048;-46
2024/01/30 07:38:12;;;;;;;11.48;7.25;;;;;;;5.71;100.00;102370.81;5072570;28;20056;-45
2024/01/30 07:40:40;;;;;;;13.55;8.13;;;;;;;5.77;100.00;102368.09;5072806;28;20044;-47
2024/01/30 07:43:09;;;;;;;13.65;7.60;;;;;;;5.88;100.00;102379.16;5072438;28;20170;-46
2024/01/30 07:45:38;;;;;;;12.82;8.07;;;;;;;6.03;100.00;102372.78;5072374;28;20114;-45
2024/01/30 07:48:07;;;;;;;14.30;8.73;;;;;;;6.07;100.00;102368.38;5071791;28;20049;-45
2024/01/30 07:50:36;;;;;;;13.43;8.60;;;;;;;6.25;100.00;102365.31;5072568;28;20052;-47
2024/01/30 07:53:05;;;;;;;14.82;8.60;;;;;;;6.38;100.00;102362.44;5072283;28;20051;-46
2024/01/30 07:55:33;;;;;;;13.75;8.43;;;;;;;6.48;100.00;102363.94;5072857;28;20075;-47
2024/01/30 07:58:01;;;;;;;14.88;8.95;;;;;;;6.55;100.00;102372.50;5072512;28;20160;-46
2024/01/30 08:00:48;;;;;;;12.98;8.23;;;;;;;6.62;100.00;102378.44;5072592;28;20054;-46
2024/01/30 08:03:18;;;;;;;16.52;8.68;;;;;;;6.60;100.00;102384.56;5072262;28;20426;-45
2024/01/30 08:05:47;;;;;;;14.18;7.70;;;;;;;6.63;100.00;102391.47;5072532;28;20044;-45
2024/01/30 08:08:15;;;;;;;16.42;7.78;;;;;;;6.65;100.00;102388.81;5069892;28;20041;-46
2024/01/30 08:10:43;;;;;;;13.90;8.55;;;;;;;6.70;100.00;102394.81;5069559;28;20131;-45
2024/01/30 08:13:11;;;;;;;12.77;7.75;;;;;;;6.70;100.00;102394.81;5072118;28;20499;-45
2024/01/30 08:15:40;;;;;;;12.63;8.25;;;;;;;6.75;100.00;102393.78;5071917;28;20036;-45
2024/01/30 08:18:10;;;;;;;13.15;8.20;;;;;;;6.79;100.00;102401.56;5072032;28;20046;-47
2024/01/30 08:20:38;;;;;;;13.45;8.38;;;;;;;6.83;100.00;102391.00;5071854;28;20044;-45
2024/01/30 08:23:08;;;;;;;12.38;7.50;;;;;;;6.88;100.00;102404.78;5069863;28;20052;-46
2024/01/30 08:25:36;;;;;;;12.43;7.82;;;;;;;6.94;100.00;102395.97;5068656;28;20041;-45
2024/01/30 08:28:05;;;;;;;12.35;7.72;;;;;;;7.00;100.00;102403.66;5070168;28;20059;-45
2024/01/30 08:30:33;;;;;;;11.50;7.63;;;;;;;7.08;100.00;102403.47;5072198;28;20040;-44
2024/01/30 08:33:03;;;;;;;13.05;8.73;;;;;;;7.12;100.00;102402.47;5070869;28;20045;-47
2024/01/30 08:35:33;;;;;;;12.68;7.70;;;;;;;7.16;100.00;102405.84;5071707;28;20048;-46
2024/01/30 08:38:03;;;;;;;11.95;7.65;;;;;;;7.20;100.00;102405.75;5069132;28;20492;-46
2024/01/30 08:40:33;;;;;;;12.68;8.00;;;;;;;7.27;100.00;102407.31;5068883;28;20515;-46
2024/01/30 08:43:01;;;;;;;12.57;8.10;;;;;;;7.32;100.00;102398.47;5068549;28;20058;-49
2024/01/30 08:45:30;;;;;;;13.55;8.00;;;;;;;7.37;100.00;102399.22;5070250;28;20056;-50
2024/01/30 08:47:58;;;;;;;12.57;8.63;;;;;;;7.42;100.00;102405.19;5067079;28;20056;-54
2024/01/30 08:50:27;;;;;;;15.32;8.52;;;;;;;7.53;100.00;102403.13;5068655;28;20128;-54
2024/01/30 08:52:55;;;;;;;12.75;7.72;;;;;;;7.54;100.00;102401.34;5071707;28;20044;-54
2024/01/30 08:55:26;;;;;;;11.95;7.75;;;;;;;7.59;100.00;102402.97;5071765;28;20053;-55
2024/01/30 08:57:55;;;;;;;14.57;8.07;;;;;;;7.60;100.00;102403.81;5072837;28;20056;-54
2024/01/30 09:00:23;;;;;;;13.00;7.68;;;;;;;7.64;100.00;102408.06;5071150;28;20163;-54
2024/01/30 09:02:52;;;;;;;13.50;7.70;;;;;;;7.72;100.00;102402.63;5072839;28;20040;-54
2024/01/30 09:05:20;;;;;;;14.57;7.88;;;;;;;7.72;100.00;102413.09;5071904;28;20434;-54
2024/01/30 09:07:48;;;;;;;13.70;7.95;;;;;;;7.74;100.00;102406.94;5072685;28;20518;-54
2024/01/30 09:10:16;;;;;;;12.60;7.45;;;;;;;7.81;100.00;102411.97;5071236;28;20079;-55
2024/01/30 09:12:49;;;;;;;14.93;8.10;;;;;;;7.87;100.00;102404.81;5072236;28;20044;-54
2024/01/30 09:15:19;;;;;;;13.60;8.43;;;;;;;7.91;100.00;102397.72;5075227;28;20739;-53
2024/01/30 09:17:48;;;;;;;14.15;7.50;;;;;;;7.99;100.00;102410.56;5075356;28;20048;-54
2024/01/30 09:20:16;;;;;;;11.23;7.88;;;;;;;8.03;100.00;102414.81;5073566;28;20079;-54
2024/01/30 09:22:44;;;;;;;13.07;8.10;;;;;;;8.03;100.00;102405.22;5071972;28;20049;-54
2024/01/30 09:25:13;;;;;;;11.73;7.95;;;;;;;8.04;100.00;102408.69;5069720;28;20466;-55
2024/01/30 09:27:41;;;;;;;15.50;7.95;;;;;;;8.05;100.00;102413.88;5071403;28;20072;-54
2024/01/30 09:30:10;;;;;;;13.32;7.80;;;;;;;8.09;100.00;102417.28;5070065;28;20125;-54
2024/01/30 09:32:40;;;;;;;14.73;7.72;;;;;;;8.16;100.00;102416.19;5071918;28;20170;-55
2024/01/30 09:35:09;;;;;;;12.50;7.75;;;;;;;8.17;100.00;102412.66;5073102;28;20052;-55
2024/01/30 09:37:38;;;;;;;13.35;8.20;;;;;;;8.19;100.00;102416.09;5075043;28;20066;-55
2024/01/30 09:40:08;;;;;;;11.77;7.57;;;;;;;8.23;100.00;102419.47;5071733;28;20049;-55
2024/01/30 09:42:37;;;;;;;12.73;7.88;;;;;;;8.29;100.00;102408.81;5071813;28;20047;-55
2024/01/30 09:45:07;;;;;;;15.02;8.32;;;;;;;8.33;100.00;102410.44;5069806;28;20076;-55
2024/01/30 09:47:41;;;;;;;13.55;8.07;;;;;;;8.35;100.00;102419.09;5072962;28;20048;-56
2024/01/30 09:50:11;;;;;;;12.57;7.82;;;;;;;8.40;100.00;102416.34;5073333;28;20045;-55
2024/01/30 09:52:40;;;;;;;11.18;7.47;;;;;;;8.40;100.00;102425.06;5074892;28;20086;-56
2024/01/30 09:55:08;;;;;;;13.25;7.75;;;;;;;8.42;100.00;102425.03;5073964;28;20407;-56
2024/01/30 09:57:37;;;;;;;13.18;7.80;;;;;;;8.48;100.00;102430.13;5071271;28;20041;-56
2024/01/30 10:00:08;;;;;;;13.10;8.07;;;;;;;8.50;100.00;102424.81;5072848;28;20494;-56
2024/01/30 10:02:37;;;;;;;13.98;7.50;;;;;;;8.53;100.00;102428.19;5074830;28;20052;-55
2024/01/30 10:05:07;;;;;;;14.48;8.55;;;;;;;8.56;100.00;102430.75;5074251;28;20161;-56
2024/01/30 10:07:35;;;;;;;12.93;8.23;;;;;;;8.59;100.00;102430.63;5070708;28;20067;-55
2024/01/30 10:10:04;;;;;;;13.77;8.38;;;;;;;8.60;100.00;102434.97;5072436;28;20517;-56
2024/01/30 10:12:32;;;;;;;12.82;8.35;;;;;;;8.63;100.00;102436.66;5073172;28;20062;-56
2024/01/30 10:15:00;;;;;;;15.65;8.25;;;;;;;8.71;100.00;102442.50;5074382;28;20059;-56
2024/01/30 10:17:28;;;;;;;14.50;8.63;;;;;;;8.75;100.00;102438.00;5074071;28;20055;-56
2024/01/30 10:20:01;;;;;;;14.93;8.30;;;;;;;8.83;100.00;102441.25;5069826;28;20414;-46
2024/01/30 10:22:31;;;;;;;14.10;8.70;;;;;;;8.92;100.00;102435.69;5071835;28;20106;-46
2024/01/30 10:25:01;;;;;;;14.20;7.82;;;;;;;9.00;100.00;102439.81;5074071;28;20040;-56
2024/01/30 10:27:33;;;;;;;14.13;8.07;;;;;;;9.08;100.00;102443.94;5074244;28;20049;-47
2024/01/30 10:30:03;;;;;;;13.00;8.45;;;;;;;9.17;100.00;102439.28;5069564;28;20041;-56
2024/01/30 10:32:32;;;;;;;15.23;8.93;;;;;;;9.19;100.00;102450.56;5069904;28;20463;-56
2024/01/30 10:35:00;;;;;;;12.38;7.95;;;;;;;9.23;100.00;102449.56;5070129;28;20075;-47
2024/01/30 10:37:33;;;;;;;16.25;8.52;;;;;;;9.22;100.00;102440.84;5071630;28;20496;-52
2024/01/30 10:40:05;;;;;;;;;;;;;;;9.25;100.00;102439.88;5074092;28;20068;-55
2024/01/30 10:42:37;;;;;;;16.38;8.10;;;;;;;9.27;100.00;102441.53;5070785;28;19920;-47
2024/01/30 10:45:09;;;;;;;16.45;9.18;;;;;;;9.29;100.00;102439.72;5069536;28;20110;-56
2024/01/30 10:47:38;;;;;;;15.50;8.05;;;;;;;9.34;100.00;102436.06;5073562;28;20086;-46
2024/01/30 10:50:08;;;;;;;13.93;8.50;;;;;;;9.33;100.00;102431.75;5072550;28;20129;-46
2024/01/30 10:52:40;;;;;;;14.43;8.23;;;;;;;9.34;100.00;102442.19;5073683;28;20530;-56
2024/01/30 10:55:09;;;;;;;13.45;8.45;;;;;;;9.34;100.00;102443.94;5069671;28;20127;-56
2024/01/30 10:57:37;;;;;;;16.23;8.90;;;;;;;9.36;100.00;102445.59;5068845;28;20068;-56
2024/01/30 11:00:10;;;;;;;12.10;8.02;;;;;;;9.37;100.00;102451.75;5068307;28;20047;-56
2024/01/30 11:02:41;;;;;;;15.25;8.25;;;;;;;9.40;100.00;102447.22;5068281;28;20143;-47
2024/01/30 11:05:09;;;;;;;19.30;9.25;;;;;;;9.47;100.00;102442.59;5068748;28;20101;-56
2024/01/30 11:07:40;;;;;;;16.10;8.68;;;;;;;9.50;100.00;102439.88;5072988;28;20037;-46
2024/01/30 11:10:12;;;;;;;18.48;8.82;;;;;;;9.57;100.00;102443.13;5073319;28;20132;-55
2024/01/30 11:12:43;;;;;;;14.45;7.97;;;;;;;9.61;100.00;102447.38;5071443;28;20057;-46
2024/01/30 11:15:15;;;;;;;16.20;8.43;;;;;;;9.64;100.00;102439.41;5067732;28;20047;-47
2024/01/30 11:17:52;;;;;;;15.57;8.52;;;;;;;9.71;100.00;102434.78;5072318;28;20542;-49
2024/01/30 11:20:23;;;;;;;15.35;8.68;;;;;;;9.76;100.00;102433.69;5072506;28;20055;-50
2024/01/30 11:22:54;;;;;;;18.83;8.30;;;;;;;9.81;100.00;102436.16;5070484;28;20048;-47